sensor_id;sensor_type;location;lat;lon;timestamp;temperature;humidity
57719;DHT22;43561;50.090;18.522;2023-05-10T00:09:27;8.10;99.90
57719;DHT22;43561;50.090;18.522;2023-05-10T00:19:29;7.90;99.90
57719;DHT22;43561;50.090;18.522;2023-05-10T00:29:31;7.70;99.90
57719;DHT22;43561;50.090;18.522;2023-05-10T00:39:33;7.50;99.90
57719;DHT22;43561;50.090;18.522;2023-05-10T00:49:35;7.40;99.90
57719;DHT22;43561;50.090;18.522;2023-05-10T00:59:38;7.20;99.90
57719;DHT22;43561;50.090;18.522;2023-05-10T01:09:40;7.00;99.90
57719;DHT22;43561;50.090;18.522;2023-05-10T01:19:42;6.90;99.90
57719;DHT22;43561;50.090;18.522;2023-05-10T01:40:25;6.70;99.90
57719;DHT22;43561;50.090;18.522;2023-05-10T01:50:30;6.50;99.90
57719;DHT22;43561;50.090;18.522;2023-05-10T02:00:32;6.40;99.90
57719;DHT22;43561;50.090;18.522;2023-05-10T02:10:35;6.30;99.90
57719;DHT22;43561;50.090;18.522;2023-05-10T02:20:38;6.20;99.90
57719;DHT22;43561;50.090;18.522;2023-05-10T02:30:41;6.10;99.90
57719;DHT22;43561;50.090;18.522;2023-05-10T02:40:44;6.00;99.90
57719;DHT22;43561;50.090;18.522;2023-05-10T02:50:47;5.90;99.90
57719;DHT22;43561;50.090;18.522;2023-05-10T03:00:52;5.90;99.90
57719;DHT22;43561;50.090;18.522;2023-05-10T03:21:12;5.80;99.90
57719;DHT22;43561;50.090;18.522;2023-05-10T03:31:17;5.80;99.90
57719;DHT22;43561;50.090;18.522;2023-05-10T03:41:19;5.80;99.90
57719;DHT22;43561;50.090;18.522;2023-05-10T03:51:22;6.00;99.90
57719;DHT22;43561;50.090;18.522;2023-05-10T04:01:24;6.70;99.90
57719;DHT22;43561;50.090;18.522;2023-05-10T04:11:26;7.30;99.90
57719;DHT22;43561;50.090;18.522;2023-05-10T04:21:28;7.30;99.90
57719;DHT22;43561;50.090;18.522;2023-05-10T04:31:30;7.90;99.90
57719;DHT22;43561;50.090;18.522;2023-05-10T04:41:32;8.80;99.90
57719;DHT22;43561;50.090;18.522;2023-05-10T04:51:34;10.20;98.10
57719;DHT22;43561;50.090;18.522;2023-05-10T05:01:36;11.50;95.30
57719;DHT22;43561;50.090;18.522;2023-05-10T05:11:38;11.90;91.00
57719;DHT22;43561;50.090;18.522;2023-05-10T05:21:40;12.10;84.20
57719;DHT22;43561;50.090;18.522;2023-05-10T05:31:43;12.90;83.90
57719;DHT22;43561;50.090;18.522;2023-05-10T05:41:45;13.80;71.90
57719;DHT22;43561;50.090;18.522;2023-05-10T05:51:47;13.70;69.30
57719;DHT22;43561;50.090;18.522;2023-05-10T06:01:49;16.00;63.10
57719;DHT22;43561;50.090;18.522;2023-05-10T06:11:52;16.00;58.70
57719;DHT22;43561;50.090;18.522;2023-05-10T06:21:54;16.70;57.20
57719;DHT22;43561;50.090;18.522;2023-05-10T06:31:57;17.20;57.60
57719;DHT22;43561;50.090;18.522;2023-05-10T06:41:59;17.50;54.40
57719;DHT22;43561;50.090;18.522;2023-05-10T06:52:06;17.70;53.60
57719;DHT22;43561;50.090;18.522;2023-05-10T07:02:08;19.10;52.50
57719;DHT22;43561;50.090;18.522;2023-05-10T07:12:10;20.50;50.90
57719;DHT22;43561;50.090;18.522;2023-05-10T07:22:16;18.90;51.30
57719;DHT22;43561;50.090;18.522;2023-05-10T07:32:18;19.70;50.40
57719;DHT22;43561;50.090;18.522;2023-05-10T07:42:20;19.90;49.80
57719;DHT22;43561;50.090;18.522;2023-05-10T07:52:22;20.40;49.20
57719;DHT22;43561;50.090;18.522;2023-05-10T08:02:24;19.70;49.30
57719;DHT22;43561;50.090;18.522;2023-05-10T08:12:26;19.50;49.90
57719;DHT22;43561;50.090;18.522;2023-05-10T08:22:28;20.30;48.70
57719;DHT22;43561;50.090;18.522;2023-05-10T08:32:30;20.60;50.30
57719;DHT22;43561;50.090;18.522;2023-05-10T08:42:34;20.00;49.70
57719;DHT22;43561;50.090;18.522;2023-05-10T08:52:38;21.20;47.70
57719;DHT22;43561;50.090;18.522;2023-05-10T09:02:43;20.90;48.70
57719;DHT22;43561;50.090;18.522;2023-05-10T09:12:45;21.00;47.90
57719;DHT22;43561;50.090;18.522;2023-05-10T09:22:48;21.00;48.90
57719;DHT22;43561;50.090;18.522;2023-05-10T09:32:50;21.80;48.70
57719;DHT22;43561;50.090;18.522;2023-05-10T09:42:59;21.30;48.80
57719;DHT22;43561;50.090;18.522;2023-05-10T09:53:03;20.70;47.80
57719;DHT22;43561;50.090;18.522;2023-05-10T10:03:06;20.50;47.30
57719;DHT22;43561;50.090;18.522;2023-05-10T10:13:08;19.40;48.30
57719;DHT22;43561;50.090;18.522;2023-05-10T10:23:10;19.90;49.00
57719;DHT22;43561;50.090;18.522;2023-05-10T10:43:41;18.50;49.80
57719;DHT22;43561;50.090;18.522;2023-05-10T10:53:43;18.80;49.80
57719;DHT22;43561;50.090;18.522;2023-05-10T11:14:06;18.60;49.30
57719;DHT22;43561;50.090;18.522;2023-05-10T11:24:14;18.40;49.80
57719;DHT22;43561;50.090;18.522;2023-05-10T11:34:30;18.40;49.60
57719;DHT22;43561;50.090;18.522;2023-05-10T11:44:33;19.10;50.10
57719;DHT22;43561;50.090;18.522;2023-05-10T11:54:35;19.20;48.90
57719;DHT22;43561;50.090;18.522;2023-05-10T12:04:37;19.80;48.00
57719;DHT22;43561;50.090;18.522;2023-05-10T12:14:39;19.20;48.60
57719;DHT22;43561;50.090;18.522;2023-05-10T12:25:22;19.90;47.90
57719;DHT22;43561;50.090;18.522;2023-05-10T12:35:24;19.10;47.70
57719;DHT22;43561;50.090;18.522;2023-05-10T12:45:26;19.30;48.10
57719;DHT22;43561;50.090;18.522;2023-05-10T12:55:28;19.60;47.50
57719;DHT22;43561;50.090;18.522;2023-05-10T13:05:30;19.30;47.40
57719;DHT22;43561;50.090;18.522;2023-05-10T13:15:32;19.70;47.20
57719;DHT22;43561;50.090;18.522;2023-05-10T13:25:34;20.10;46.30
57719;DHT22;43561;50.090;18.522;2023-05-10T13:35:36;19.90;46.10
57719;DHT22;43561;50.090;18.522;2023-05-10T13:45:38;20.10;46.10
57719;DHT22;43561;50.090;18.522;2023-05-10T13:55:40;19.80;46.50
57719;DHT22;43561;50.090;18.522;2023-05-10T14:05:42;20.00;46.50
57719;DHT22;43561;50.090;18.522;2023-05-10T14:15:43;19.70;46.80
57719;DHT22;43561;50.090;18.522;2023-05-10T14:25:45;19.30;47.20
57719;DHT22;43561;50.090;18.522;2023-05-10T14:35:48;19.30;47.80
57719;DHT22;43561;50.090;18.522;2023-05-10T14:45:50;19.30;48.80
57719;DHT22;43561;50.090;18.522;2023-05-10T14:55:52;19.00;48.20
57719;DHT22;43561;50.090;18.522;2023-05-10T15:05:54;18.90;47.40
57719;DHT22;43561;50.090;18.522;2023-05-10T15:15:55;19.10;48.00
57719;DHT22;43561;50.090;18.522;2023-05-10T15:25:57;18.90;47.60
57719;DHT22;43561;50.090;18.522;2023-05-10T15:35:59;18.70;47.50
57719;DHT22;43561;50.090;18.522;2023-05-10T15:46:01;18.80;48.90
57719;DHT22;43561;50.090;18.522;2023-05-10T15:56:04;18.90;47.90
57719;DHT22;43561;50.090;18.522;2023-05-10T16:06:06;19.20;48.20
57719;DHT22;43561;50.090;18.522;2023-05-10T16:16:08;18.90;48.00
57719;DHT22;43561;50.090;18.522;2023-05-10T16:26:10;19.00;47.80
57719;DHT22;43561;50.090;18.522;2023-05-10T16:36:12;18.80;48.00
57719;DHT22;43561;50.090;18.522;2023-05-10T16:46:14;18.70;47.90
57719;DHT22;43561;50.090;18.522;2023-05-10T16:56:16;18.60;48.10
57719;DHT22;43561;50.090;18.522;2023-05-10T17:06:19;18.60;47.90
57719;DHT22;43561;50.090;18.522;2023-05-10T17:16:21;18.30;47.90
57719;DHT22;43561;50.090;18.522;2023-05-10T17:26:23;18.20;47.90
57719;DHT22;43561;50.090;18.522;2023-05-10T17:36:25;18.20;48.30
57719;DHT22;43561;50.090;18.522;2023-05-10T17:46:27;18.00;48.50
57719;DHT22;43561;50.090;18.522;2023-05-10T17:56:29;17.80;49.10
57719;DHT22;43561;50.090;18.522;2023-05-10T18:06:35;17.50;49.50
57719;DHT22;43561;50.090;18.522;2023-05-10T18:16:37;17.30;50.10
57719;DHT22;43561;50.090;18.522;2023-05-10T18:26:39;17.10;52.60
57719;DHT22;43561;50.090;18.522;2023-05-10T18:36:41;16.90;50.50
57719;DHT22;43561;50.090;18.522;2023-05-10T18:46:43;16.80;51.00
57719;DHT22;43561;50.090;18.522;2023-05-10T18:56:45;16.60;51.80
57719;DHT22;43561;50.090;18.522;2023-05-10T19:06:47;16.30;52.40
57719;DHT22;43561;50.090;18.522;2023-05-10T19:16:50;16.30;52.80
57719;DHT22;43561;50.090;18.522;2023-05-10T19:26:55;16.10;53.40
57719;DHT22;43561;50.090;18.522;2023-05-10T19:36:57;16.00;53.50
57719;DHT22;43561;50.090;18.522;2023-05-10T19:46:59;15.90;53.30
57719;DHT22;43561;50.090;18.522;2023-05-10T19:57:01;15.70;53.80
57719;DHT22;43561;50.090;18.522;2023-05-10T20:07:04;15.60;53.80
57719;DHT22;43561;50.090;18.522;2023-05-10T20:17:06;15.60;54.00
57719;DHT22;43561;50.090;18.522;2023-05-10T20:27:08;15.30;55.40
57719;DHT22;43561;50.090;18.522;2023-05-10T20:37:10;15.20;55.40
57719;DHT22;43561;50.090;18.522;2023-05-10T20:47:15;14.90;56.20
57719;DHT22;43561;50.090;18.522;2023-05-10T20:57:18;14.70;56.60
57719;DHT22;43561;50.090;18.522;2023-05-10T21:07:20;14.50;56.90
57719;DHT22;43561;50.090;18.522;2023-05-10T21:17:23;14.30;57.70
57719;DHT22;43561;50.090;18.522;2023-05-10T21:27:26;14.20;58.10
57719;DHT22;43561;50.090;18.522;2023-05-10T21:37:28;14.10;58.60
57719;DHT22;43561;50.090;18.522;2023-05-10T21:47:30;13.80;59.60
57719;DHT22;43561;50.090;18.522;2023-05-10T21:57:31;13.80;60.30
57719;DHT22;43561;50.090;18.522;2023-05-10T22:07:33;13.60;61.10
57719;DHT22;43561;50.090;18.522;2023-05-10T22:17:39;13.60;61.30
57719;DHT22;43561;50.090;18.522;2023-05-10T22:27:41;13.30;63.30
57719;DHT22;43561;50.090;18.522;2023-05-10T22:37:43;13.20;64.60
57719;DHT22;43561;50.090;18.522;2023-05-10T22:47:45;13.00;66.50
57719;DHT22;43561;50.090;18.522;2023-05-10T22:57:48;12.80;69.10
57719;DHT22;43561;50.090;18.522;2023-05-10T23:07:50;12.80;70.40
57719;DHT22;43561;50.090;18.522;2023-05-10T23:17:52;12.70;72.50
57719;DHT22;43561;50.090;18.522;2023-05-10T23:27:54;12.60;75.60
57719;DHT22;43561;50.090;18.522;2023-05-10T23:37:56;12.40;78.50
57719;DHT22;43561;50.090;18.522;2023-05-10T23:47:58;12.40;79.90
57719;DHT22;43561;50.090;18.522;2023-05-10T23:58:00;12.20;83.20
